createdAt,value
2023-04-04T00:00:29.932Z,99596.34
2023-04-04T00:02:56.999Z,99597.19
2023-04-04T00:05:24.056Z,99588.63
2023-04-04T00:07:51.104Z,99591.19
2023-04-04T00:10:17.982Z,99586.06
2023-04-04T00:12:44.948Z,99580.06
2023-04-04T00:15:12.228Z,99585.19
2023-04-04T00:17:39.119Z,99579.19
2023-04-04T00:20:06.765Z,99587.84
2023-04-04T00:22:33.700Z,99578.38
2023-04-04T00:25:00.828Z,99581.81
2023-04-04T00:27:27.813Z,99575.84
2023-04-04T00:29:54.657Z,99576.75
2023-04-04T00:32:21.856Z,99573.34
2023-04-04T00:34:54.946Z,99576.75
2023-04-04T00:37:22.164Z,99575.00
2023-04-04T00:39:50.153Z,99569.84
2023-04-04T00:42:17.260Z,99572.41
2023-04-04T00:44:44.162Z,99570.63
2023-04-04T00:47:11.327Z,99572.31
2023-04-04T00:49:38.279Z,99573.16
2023-04-04T00:52:07.384Z,99569.72
2023-04-04T00:54:35.045Z,99567.16
2023-04-04T00:57:02.293Z,99569.72
2023-04-04T00:59:29.383Z,99572.31
2023-04-04T01:01:56.751Z,99564.56
2023-04-04T01:04:23.728Z,99570.53
2023-04-04T01:06:51.047Z,99567.13
2023-04-04T01:09:17.875Z,99564.56
2023-04-04T01:11:44.803Z,99574.84
2023-04-04T01:14:11.947Z,99573.94
2023-04-04T01:16:39.954Z,99572.13
2023-04-04T01:19:08.908Z,99567.72
2023-04-04T01:21:36.248Z,99563.41
2023-04-04T01:24:04.612Z,99566.84
2023-04-04T01:26:51.469Z,99564.22
2023-04-04T01:29:18.489Z,99566.84
2023-04-04T01:32:17.151Z,99563.38
2023-04-04T01:34:54.325Z,99559.06
2023-04-04T01:37:28.062Z,99565.06
2023-04-04T01:40:09.641Z,99563.41
2023-04-04T01:42:36.962Z,99566.84
2023-04-04T01:45:04.755Z,99570.25
2023-04-04T01:47:39.374Z,99564.25
2023-04-04T01:50:11.121Z,99561.72
2023-04-04T01:52:38.572Z,99571.13
2023-04-04T01:55:06.005Z,99571.91
2023-04-04T01:57:33.764Z,99576.22
2023-04-04T02:00:00.691Z,99570.16
2023-04-04T02:02:27.825Z,99568.34
2023-04-04T02:04:55.472Z,99563.16
2023-04-04T02:07:22.497Z,99567.44
2023-04-04T02:09:49.590Z,99562.31
2023-04-04T02:12:16.544Z,99570.88
2023-04-04T02:14:43.512Z,99568.28
2023-04-04T02:17:10.898Z,99566.53
2023-04-04T02:19:38.362Z,99575.97
2023-04-04T02:22:06.104Z,99582.91
2023-04-04T02:24:33.030Z,99575.22
2023-04-04T02:27:00.044Z,99579.53
2023-04-04T02:29:27.213Z,99574.38
2023-04-04T02:31:54.165Z,99576.13
2023-04-04T02:34:21.432Z,99576.91
2023-04-04T02:36:51.844Z,99574.28
2023-04-04T02:39:23.080Z,99573.41
2023-04-04T02:41:51.388Z,99577.72
2023-04-04T02:44:18.291Z,99571.75
2023-04-04T02:46:46.856Z,99579.53
2023-04-04T02:49:15.803Z,99578.66
2023-04-04T02:51:47.804Z,99574.38
2023-04-04T02:54:15.128Z,99578.66
2023-04-04T02:56:45.251Z,99570.09
2023-04-04T02:59:12.411Z,99573.50
2023-04-04T03:01:39.506Z,99575.19
2023-04-04T03:04:07.149Z,99572.56
2023-04-04T03:06:35.462Z,99570.84
2023-04-04T03:09:04.612Z,99574.25
2023-04-04T03:11:31.974Z,99571.66
2023-04-04T03:13:58.874Z,99568.19
2023-04-04T03:16:33.049Z,99577.59
2023-04-04T03:19:00.024Z,99583.59
2023-04-04T03:21:30.136Z,99580.09
2023-04-04T03:23:58.501Z,99582.69
2023-04-04T03:26:25.599Z,99583.56
2023-04-04T03:28:52.950Z,99582.69
2023-04-04T03:31:22.085Z,99578.38
2023-04-04T03:33:49.215Z,99586.09
2023-04-04T03:36:16.775Z,99580.09
2023-04-04T03:38:47.660Z,99580.06
2023-04-04T03:41:15.392Z,99578.28
2023-04-04T03:43:42.275Z,99573.13
2023-04-04T03:46:09.215Z,99581.75
2023-04-04T03:48:36.250Z,99575.75
2023-04-04T03:51:06.814Z,99578.31
2023-04-04T03:53:35.863Z,99574.06
2023-04-04T03:56:02.863Z,99578.38
2023-04-04T03:58:30.336Z,99579.25
2023-04-04T04:00:57.218Z,99582.72
2023-04-04T04:03:28.722Z,99581.03
2023-04-04T04:05:55.823Z,99579.34
2023-04-04T04:08:24.067Z,99586.22
2023-04-04T04:10:52.233Z,99580.22
2023-04-04T04:13:19.189Z,99582.00
2023-04-04T04:15:46.320Z,99584.59
2023-04-04T04:18:18.345Z,99587.19
2023-04-04T04:20:45.811Z,99588.88
2023-04-04T04:23:12.735Z,99584.66
2023-04-04T04:25:40.507Z,99592.41
2023-04-04T04:28:16.466Z,99585.47
2023-04-04T04:30:44.398Z,99585.41
2023-04-04T04:33:13.009Z,99591.50
2023-04-04T04:35:52.478Z,99594.94
2023-04-04T04:38:21.556Z,99582.91
2023-04-04T04:40:49.787Z,99590.69
2023-04-04T04:43:24.382Z,99583.75
2023-04-04T04:45:51.804Z,99582.97
2023-04-04T04:48:18.830Z,99586.41
2023-04-04T04:50:50.657Z,99577.91
2023-04-04T04:53:28.009Z,99588.31
2023-04-04T04:55:55.087Z,99582.34
2023-04-04T04:58:24.687Z,99586.75
2023-04-04T05:00:56.801Z,99582.56
2023-04-04T05:03:24.959Z,99583.50
2023-04-04T05:05:52.450Z,99584.44
2023-04-04T05:08:19.767Z,99587.13
2023-04-04T05:11:04.727Z,99581.25
2023-04-04T05:13:32.968Z,99581.38
2023-04-04T05:16:00.406Z,99582.38
2023-04-04T05:18:28.432Z,99579.06
2023-04-04T05:20:56.015Z,99582.53
2023-04-04T05:23:26.519Z,99579.19
2023-04-04T05:25:54.405Z,99582.69
2023-04-04T05:28:23.645Z,99581.84
2023-04-04T05:30:53.620Z,99578.44
2023-04-04T05:33:24.810Z,99582.00
2023-04-04T05:36:01.966Z,99580.31
2023-04-04T05:38:31.480Z,99579.47
2023-04-04T05:40:58.410Z,99580.41
2023-04-04T05:43:26.345Z,99580.47
2023-04-04T05:46:07.738Z,99581.34
2023-04-04T05:48:50.247Z,99576.19
2023-04-04T05:51:17.791Z,99577.91
2023-04-04T05:53:54.460Z,99580.50
2023-04-04T05:56:26.483Z,99583.97
2023-04-04T05:58:55.753Z,99583.06
2023-04-04T06:01:23.314Z,99578.78
2023-04-04T06:03:53.194Z,99578.78
2023-04-04T06:06:25.206Z,99577.94
2023-04-04T06:08:53.776Z,99578.81
2023-04-04T06:11:23.095Z,99583.13
2023-04-04T06:13:51.553Z,99580.53
2023-04-04T06:16:21.549Z,99584.84
2023-04-04T06:18:48.825Z,99588.28
2023-04-04T06:21:15.937Z,99583.94
2023-04-04T06:23:42.841Z,99589.97
2023-04-04T06:26:09.835Z,99589.97
2023-04-04T06:28:47.131Z,99595.09
2023-04-04T06:31:14.460Z,99600.22
2023-04-04T06:33:41.395Z,99598.44
2023-04-04T06:36:08.597Z,99595.78
2023-04-04T06:38:35.637Z,99598.25
2023-04-04T06:41:06.868Z,99604.16
2023-04-04T06:43:33.860Z,99594.50
2023-04-04T06:46:01.320Z,99596.19
2023-04-04T06:48:28.252Z,99593.50
2023-04-04T06:50:55.724Z,99597.75
2023-04-04T06:53:23.862Z,99600.28
2023-04-04T06:55:51.796Z,99601.91
2023-04-04T06:58:18.812Z,99596.63
2023-04-04T07:00:46.282Z,99600.00
2023-04-04T07:03:13.267Z,99601.53
2023-04-04T07:05:40.110Z,99603.16
2023-04-04T07:08:07.157Z,99600.59
2023-04-04T07:10:33.982Z,99603.09
2023-04-04T07:13:01.062Z,99595.19
2023-04-04T07:15:28.247Z,99601.22
2023-04-04T07:17:55.384Z,99595.91
2023-04-04T07:20:22.406Z,99607.81
2023-04-04T07:22:49.464Z,99606.63
2023-04-04T07:25:16.791Z,99603.81
2023-04-04T07:27:43.691Z,99615.94
2023-04-04T07:30:11.877Z,99607.16
2023-04-04T07:32:39.076Z,99613.22
2023-04-04T07:35:07.084Z,99615.00
2023-04-04T07:37:37.024Z,99609.84
2023-04-04T07:40:08.845Z,99608.81
2023-04-04T07:42:36.055Z,99611.34
2023-04-04T07:45:03.128Z,99609.53
2023-04-04T07:47:30.378Z,99612.88
2023-04-04T07:49:57.300Z,99611.09
2023-04-04T07:52:24.210Z,99614.50
2023-04-04T07:54:52.455Z,99617.09
2023-04-04T07:57:19.424Z,99609.88
2023-04-04T07:59:46.361Z,99611.50
2023-04-04T08:02:13.566Z,99613.94
2023-04-04T08:04:40.649Z,99616.38
2023-04-04T08:07:07.545Z,99614.25
2023-04-04T08:09:36.424Z,99614.19
2023-04-04T08:12:03.709Z,99622.88
2023-04-04T08:14:31.458Z,99620.03
2023-04-04T08:16:58.552Z,99622.53
2023-04-04T08:19:25.556Z,99618.16
2023-04-04T08:21:52.571Z,99619.69
2023-04-04T08:24:19.606Z,99624.91
2023-04-04T08:26:54.658Z,99625.75
2023-04-04T08:29:29.552Z,99612.69
2023-04-04T08:31:56.637Z,99610.84
2023-04-04T08:34:23.736Z,99614.34
2023-04-04T08:36:50.674Z,99610.78
2023-04-04T08:39:17.706Z,99606.25
2023-04-04T08:41:45.721Z,99609.81
2023-04-04T08:44:17.370Z,99610.91
2023-04-04T08:46:45.868Z,99611.41
2023-04-04T08:49:16.921Z,99611.09
2023-04-04T08:51:44.835Z,99611.00
2023-04-04T08:54:12.059Z,99614.13
2023-04-04T08:56:39.056Z,99596.38
2023-04-04T08:59:06.048Z,99608.34
2023-04-04T09:01:33.448Z,99608.28
2023-04-04T09:04:00.851Z,99612.28
2023-04-04T09:06:28.085Z,99616.31
2023-04-04T09:08:55.061Z,99615.91
2023-04-04T09:11:21.967Z,99619.28
2023-04-04T09:13:49.189Z,99616.22
2023-04-04T09:16:16.098Z,99614.50
2023-04-04T09:18:43.613Z,99618.28
2023-04-04T09:21:11.974Z,99611.94
2023-04-04T09:23:38.947Z,99624.59
2023-04-04T09:26:06.204Z,99629.28
2023-04-04T09:28:36.712Z,99630.94
2023-04-04T09:31:05.832Z,99620.78
2023-04-04T09:33:35.913Z,99616.25
2023-04-04T09:36:05.360Z,99614.59
2023-04-04T09:38:32.542Z,99628.63
2023-04-04T09:40:59.547Z,99621.13
2023-04-04T09:43:26.594Z,99625.06
2023-04-04T09:45:54.951Z,99632.28
2023-04-04T09:48:35.391Z,99627.41
2023-04-04T09:51:06.654Z,99633.69
2023-04-04T09:53:39.965Z,99633.50
2023-04-04T09:56:07.186Z,99630.03
2023-04-04T09:58:37.274Z,99640.28
2023-04-04T10:01:09.016Z,99634.78
2023-04-04T10:03:37.012Z,99636.50
2023-04-04T10:06:07.175Z,99634.97
2023-04-04T10:08:34.670Z,99636.69
2023-04-04T10:11:11.312Z,99636.97
2023-04-04T10:13:44.723Z,99641.84
2023-04-04T10:16:12.083Z,99648.16
2023-04-04T10:18:39.787Z,99645.75
2023-04-04T10:23:39.073Z,99657.22
2023-04-04T10:26:06.673Z,99655.69
2023-04-04T10:28:34.599Z,99668.09
2023-04-04T10:31:20.267Z,99668.22
2023-04-04T10:34:22.442Z,99661.69
2023-04-04T10:36:50.712Z,99662.03
2023-04-04T10:39:29.817Z,99670.91
2023-04-04T10:41:56.930Z,99669.19
2023-04-04T10:44:30.205Z,99662.25
2023-04-04T10:46:59.007Z,99674.63
2023-04-04T10:49:26.227Z,99672.94
2023-04-04T10:51:56.392Z,99670.56
2023-04-04T10:54:29.213Z,99670.75
2023-04-04T10:57:00.685Z,99675.97
2023-04-04T10:59:28.482Z,99669.16
2023-04-04T11:01:58.238Z,99674.38
2023-04-04T11:04:35.807Z,99670.13
2023-04-04T11:07:18.202Z,99673.72
2023-04-04T11:09:55.601Z,99664.25
2023-04-04T11:12:33.710Z,99666.03
2023-04-04T11:15:03.936Z,99663.59
2023-04-04T11:17:49.434Z,99660.28
2023-04-04T11:20:17.873Z,99657.81
2023-04-04T11:22:45.694Z,99663.88
2023-04-04T11:25:27.672Z,99660.41
2023-04-04T11:27:55.010Z,99663.16
2023-04-04T11:30:22.197Z,99660.69
2023-04-04T11:32:59.913Z,99659.84
2023-04-04T11:35:33.726Z,99656.38
2023-04-04T11:38:01.100Z,99664.19
2023-04-04T11:40:35.366Z,99660.69
2023-04-04T11:43:04.004Z,99661.63
2023-04-04T11:45:33.811Z,99665.97
2023-04-04T11:48:01.433Z,99659.03
2023-04-04T11:50:29.568Z,99662.47
2023-04-04T11:52:59.190Z,99659.91
2023-04-04T11:55:26.697Z,99655.59
2023-04-04T11:57:55.675Z,99659.91
2023-04-04T12:00:37.027Z,99657.31
2023-04-04T12:03:05.714Z,99657.31
2023-04-04T12:05:32.952Z,99655.59
2023-04-04T12:08:02.332Z,99654.75
2023-04-04T12:10:31.685Z,99654.72
2023-04-04T12:12:59.119Z,99652.97
2023-04-04T12:15:28.193Z,99656.53
2023-04-04T12:17:55.569Z,99664.34
2023-04-04T12:20:24.277Z,99671.22
2023-04-04T12:22:54.480Z,99670.34
2023-04-04T12:25:22.728Z,99674.66
2023-04-04T12:27:50.112Z,99671.13
2023-04-04T12:30:17.175Z,99677.19
2023-04-04T12:32:45.065Z,99678.94
2023-04-04T12:35:13.477Z,99682.50
2023-04-04T12:37:41.261Z,99675.59
2023-04-04T12:40:08.398Z,99679.94
2023-04-04T12:42:35.593Z,99682.53
2023-04-04T12:45:04.119Z,99685.19
2023-04-04T12:47:31.457Z,99682.53
2023-04-04T12:49:58.568Z,99677.28
2023-04-04T12:52:32.198Z,99676.41
2023-04-04T12:55:09.701Z,99672.91
2023-04-04T12:57:38.322Z,99665.97
2023-04-04T13:00:07.885Z,99668.47
2023-04-04T13:02:35.753Z,99675.34
2023-04-04T13:05:02.837Z,99672.72
2023-04-04T13:07:34.962Z,99666.66
2023-04-04T13:10:03.957Z,99669.25
2023-04-04T13:12:59.643Z,99671.00
2023-04-04T13:15:49.302Z,99674.41
2023-04-04T13:18:24.707Z,99675.41
2023-04-04T13:20:52.319Z,99683.28
2023-04-04T13:23:19.340Z,99685.03
2023-04-04T13:25:46.275Z,99689.41
2023-04-04T13:28:13.301Z,99693.81
2023-04-04T13:30:43.814Z,99691.09
2023-04-04T13:33:11.261Z,99696.09
2023-04-04T13:35:38.788Z,99699.50
2023-04-04T13:38:06.027Z,99701.22
2023-04-04T13:40:33.083Z,99705.59
2023-04-04T13:43:00.114Z,99709.97
2023-04-04T13:45:27.029Z,99703.97
2023-04-04T13:47:54.049Z,99707.44
2023-04-04T13:50:22.207Z,99708.22
2023-04-04T13:52:51.991Z,99704.66
2023-04-04T13:55:18.998Z,99704.59
2023-04-04T13:57:46.161Z,99708.09
2023-04-04T14:00:13.669Z,99703.81
2023-04-04T14:02:40.689Z,99711.75
2023-04-04T14:05:08.191Z,99704.06
2023-04-04T14:07:37.792Z,99705.91
2023-04-04T14:10:05.471Z,99703.41
2023-04-04T14:12:32.412Z,99710.47
2023-04-04T14:14:59.371Z,99711.34
2023-04-04T14:17:26.499Z,99716.59
2023-04-04T14:19:53.512Z,99712.25
2023-04-04T14:22:20.425Z,99707.09
2023-04-04T14:24:47.350Z,99713.09
2023-04-04T14:27:14.315Z,99700.91
2023-04-04T14:29:41.489Z,99695.66
2023-04-04T14:32:08.585Z,99699.97
2023-04-04T14:34:35.682Z,99705.22
2023-04-04T14:37:02.731Z,99710.47
2023-04-04T14:39:29.821Z,99705.31
2023-04-04T14:41:57.203Z,99701.97
2023-04-04T14:44:25.228Z,99707.31
2023-04-04T14:46:55.372Z,99711.72
2023-04-04T14:49:22.875Z,99709.25
2023-04-04T14:51:51.075Z,99705.06
2023-04-04T14:54:18.053Z,99712.16
2023-04-04T14:56:45.747Z,99727.91
2023-04-04T14:59:12.976Z,99725.41
2023-04-04T15:01:40.225Z,99723.69
2023-04-04T15:04:07.403Z,99731.56
2023-04-04T15:06:37.935Z,99726.38
2023-04-04T15:09:08.760Z,99735.09
2023-04-04T15:11:36.177Z,99726.47
2023-04-04T15:14:03.233Z,99725.63
2023-04-04T15:16:33.237Z,99730.88
2023-04-04T15:19:01.003Z,99730.03
2023-04-04T15:21:31.784Z,99727.47
2023-04-04T15:23:58.823Z,99728.44
2023-04-04T15:26:26.160Z,99730.22
2023-04-04T15:28:53.177Z,99732.00
2023-04-04T15:31:20.972Z,99731.19
2023-04-04T15:33:48.489Z,99729.50
2023-04-04T15:36:16.602Z,99726.06
2023-04-04T15:38:43.506Z,99736.47
2023-04-04T15:41:10.509Z,99741.72
2023-04-04T15:43:37.487Z,99736.56
2023-04-04T15:46:04.912Z,99735.81
2023-04-04T15:48:32.172Z,99741.06
2023-04-04T15:51:02.635Z,99741.13
2023-04-04T15:53:32.520Z,99749.00
2023-04-04T15:55:59.581Z,99751.66
2023-04-04T15:58:26.541Z,99749.97
2023-04-04T16:00:53.534Z,99758.66
2023-04-04T16:03:20.678Z,99758.72
2023-04-04T16:05:48.191Z,99764.81
2023-04-04T16:08:15.127Z,99770.91
2023-04-04T16:10:44.134Z,99768.38
2023-04-04T16:13:11.374Z,99773.59
2023-04-04T16:15:38.507Z,99772.78
2023-04-04T16:18:05.633Z,99779.72
2023-04-04T16:20:32.566Z,99776.31
2023-04-04T16:22:59.506Z,99778.91
2023-04-04T16:25:27.094Z,99786.72
2023-04-04T16:27:54.156Z,99786.72
2023-04-04T16:30:21.165Z,99785.88
2023-04-04T16:32:48.171Z,99787.66
2023-04-04T16:35:15.257Z,99801.53
2023-04-04T16:37:42.167Z,99796.34
2023-04-04T16:40:09.532Z,99803.28
2023-04-04T16:42:36.579Z,99800.69
2023-04-04T16:45:03.890Z,99799.84
2023-04-04T16:47:30.838Z,99810.22
2023-04-04T16:49:58.734Z,99801.56
2023-04-04T16:52:25.619Z,99804.16
2023-04-04T16:54:54.557Z,99805.03
2023-04-04T16:57:21.468Z,99805.03
2023-04-04T16:59:48.470Z,99817.13
2023-04-04T17:02:15.548Z,99813.66
2023-04-04T17:04:42.518Z,99809.34
2023-04-04T17:07:09.519Z,99811.97
2023-04-04T17:09:37.066Z,99805.03
2023-04-04T17:12:04.014Z,99814.53
2023-04-04T17:14:31.082Z,99807.63
2023-04-04T17:17:00.669Z,99808.50
2023-04-04T17:19:30.109Z,99806.78
2023-04-04T17:21:58.272Z,99806.78
2023-04-04T17:24:27.968Z,99810.22
2023-04-04T17:26:57.021Z,99809.34
2023-04-04T17:29:26.909Z,99817.16
2023-04-04T17:31:55.098Z,99806.78
2023-04-04T17:34:22.409Z,99817.16
2023-04-04T17:36:51.321Z,99823.19
2023-04-04T17:39:18.444Z,99819.75
2023-04-04T17:41:48.684Z,99819.75
2023-04-04T17:44:16.425Z,99832.69
2023-04-04T17:46:43.417Z,99822.34
2023-04-04T17:49:10.478Z,99828.41
2023-04-04T17:51:37.570Z,99824.94
2023-04-04T17:54:05.296Z,99824.91
2023-04-04T17:56:32.596Z,99826.66
2023-04-04T17:58:59.682Z,99831.84
2023-04-04T18:01:28.116Z,99826.66
2023-04-04T18:03:55.862Z,99818.88
2023-04-04T18:06:23.980Z,99819.75
2023-04-04T18:08:51.186Z,99826.66
2023-04-04T18:11:18.077Z,99830.09
2023-04-04T18:13:45.211Z,99829.25
2023-04-04T18:16:12.313Z,99829.25
2023-04-04T18:18:40.495Z,99822.31
2023-04-04T18:21:08.561Z,99819.72
2023-04-04T18:23:35.603Z,99831.84
2023-04-04T18:26:02.675Z,99830.94
2023-04-04T18:28:29.755Z,99836.09
2023-04-04T18:30:56.737Z,99832.66
2023-04-04T18:33:25.102Z,99830.91
2023-04-04T18:35:52.082Z,99836.94
2023-04-04T18:38:19.497Z,99832.66
2023-04-04T18:40:46.685Z,99830.91
2023-04-04T18:43:13.936Z,99832.63
2023-04-04T18:45:41.610Z,99834.31
2023-04-04T18:48:08.785Z,99827.38
2023-04-04T18:50:36.084Z,99835.13
2023-04-04T18:53:03.082Z,99837.72
2023-04-04T18:55:30.052Z,99834.25
2023-04-04T18:57:57.576Z,99836.78
2023-04-04T19:00:24.704Z,99832.47
2023-04-04T19:02:51.877Z,99836.78
2023-04-04T19:05:23.403Z,99831.56
2023-04-04T19:07:51.614Z,99829.81
2023-04-04T19:10:18.514Z,99831.50
2023-04-04T19:12:45.512Z,99833.25
2023-04-04T19:15:12.741Z,99838.41
2023-04-04T19:17:40.111Z,99834.91
2023-04-04T19:20:08.361Z,99832.34
2023-04-04T19:22:35.652Z,99828.88
2023-04-04T19:25:02.578Z,99830.63
2023-04-04T19:27:29.650Z,99832.31
2023-04-04T19:29:56.552Z,99838.28
2023-04-04T19:32:24.927Z,99836.44
2023-04-04T19:34:52.393Z,99838.97
2023-04-04T19:37:19.298Z,99842.38
2023-04-04T19:39:46.461Z,99846.66
2023-04-04T19:42:13.377Z,99846.63
2023-04-04T19:44:40.971Z,99848.31
2023-04-04T19:47:09.991Z,99846.56
2023-04-04T19:49:38.228Z,99848.25
2023-04-04T19:52:05.674Z,99843.94
2023-04-04T19:54:43.058Z,99846.50
2023-04-04T19:57:23.503Z,99852.53
2023-04-04T20:00:11.039Z,99858.59
2023-04-04T20:02:47.914Z,99845.56
2023-04-04T20:05:32.218Z,99860.91
2023-04-04T20:08:00.244Z,99853.13
2023-04-04T20:10:37.490Z,99854.91
2023-04-04T20:13:07.269Z,99848.03
2023-04-04T20:15:43.760Z,99865.25
2023-04-04T20:18:10.839Z,99856.63
2023-04-04T20:21:12.738Z,99860.00
2023-04-04T20:23:58.238Z,99859.00
2023-04-04T20:26:54.637Z,99865.84
2023-04-04T20:29:27.153Z,99862.31
2023-04-04T20:31:55.964Z,99862.22
2023-04-04T20:34:37.154Z,99867.34
2023-04-04T20:37:07.766Z,99867.31
2023-04-04T20:39:41.215Z,99869.00
2023-04-04T20:42:18.330Z,99869.84
2023-04-04T20:44:46.152Z,99865.53
2023-04-04T20:47:43.393Z,99867.16
2023-04-04T20:50:16.262Z,99864.53
2023-04-04T20:52:46.567Z,99865.38
2023-04-04T20:55:13.484Z,99872.28
2023-04-04T20:57:40.497Z,99867.13
2023-04-04T21:00:28.305Z,99873.97
2023-04-04T21:02:59.480Z,99873.09
2023-04-04T21:05:31.278Z,99870.44
2023-04-04T21:07:58.736Z,99872.03
2023-04-04T21:10:28.591Z,99869.38
2023-04-04T21:12:59.406Z,99874.53
2023-04-04T21:15:30.148Z,99874.53
2023-04-04T21:17:59.244Z,99876.22
2023-04-04T21:20:44.942Z,99879.63
2023-04-04T21:23:33.243Z,99871.75
2023-04-04T21:26:02.025Z,99875.97
2023-04-04T21:28:39.456Z,99869.94
2023-04-04T21:31:14.101Z,99869.06
2023-04-04T21:33:44.959Z,99870.81
2023-04-04T21:36:21.436Z,99875.16
2023-04-04T21:38:48.350Z,99874.31
2023-04-04T21:41:27.192Z,99880.28
2023-04-04T21:43:54.827Z,99886.19
2023-04-04T21:46:25.717Z,99881.88
2023-04-04T21:48:53.077Z,99880.13
2023-04-04T21:51:20.055Z,99887.09
2023-04-04T21:53:47.031Z,99884.56
2023-04-04T21:56:14.044Z,99887.06
2023-04-04T21:58:41.528Z,99891.25
2023-04-04T22:01:08.679Z,99902.41
2023-04-04T22:03:37.459Z,99892.84
2023-04-04T22:06:04.731Z,99885.00
2023-04-04T22:08:31.696Z,99892.75
2023-04-04T22:11:01.857Z,99892.69
2023-04-04T22:13:35.289Z,99893.53
2023-04-04T22:16:04.636Z,99897.84
2023-04-04T22:18:33.214Z,99904.75
2023-04-04T22:21:04.410Z,99896.06
2023-04-04T22:23:37.796Z,99894.34
2023-04-04T22:26:05.455Z,99892.66
2023-04-04T22:28:33.471Z,99896.91
2023-04-04T22:31:01.833Z,99896.00
2023-04-04T22:33:29.895Z,99894.22
2023-04-04T22:35:58.060Z,99889.88
2023-04-04T22:38:25.774Z,99896.75
2023-04-04T22:40:52.783Z,99899.34
2023-04-04T22:43:20.492Z,99901.00
2023-04-04T22:45:47.554Z,99893.19
2023-04-04T22:48:17.333Z,99901.66
2023-04-04T22:50:49.888Z,99911.00
2023-04-04T22:53:24.703Z,99907.53
2023-04-04T22:55:52.763Z,99905.00
2023-04-04T22:58:20.998Z,99904.19
2023-04-04T23:00:48.097Z,99910.16
2023-04-04T23:03:15.028Z,99901.59
2023-04-04T23:05:42.238Z,99908.44
2023-04-04T23:08:09.195Z,99905.84
2023-04-04T23:10:36.872Z,99907.59
2023-04-04T23:13:03.881Z,99911.78
2023-04-04T23:15:33.158Z,99904.91
2023-04-04T23:18:00.146Z,99909.19
2023-04-04T23:20:28.046Z,99915.97
2023-04-04T23:22:55.059Z,99911.63
2023-04-04T23:25:21.862Z,99915.91
2023-04-04T23:27:48.747Z,99908.19
2023-04-04T23:30:15.860Z,99914.13
2023-04-04T23:32:42.862Z,99916.66
2023-04-04T23:35:09.975Z,99913.97
2023-04-04T23:37:36.951Z,99914.75
2023-04-04T23:40:05.478Z,99918.09
2023-04-04T23:42:32.408Z,99916.34
2023-04-04T23:45:01.085Z,99916.34
2023-04-04T23:47:28.194Z,99922.28
2023-04-04T23:49:55.293Z,99916.22
2023-04-04T23:52:22.229Z,99923.78
2023-04-04T23:54:49.264Z,99926.19
2023-04-04T23:57:16.679Z,99924.44
2023-04-04T23:59:43.504Z,99935.63
